MSP weather

Minneapolis-St Paul International/Wold-Chamberlain Airport
Minneapolis, Minnesota, United States

Public forecast

Using degrees Fahrenheit for public forecast. Weather courtesy of forecast.io.

Current aviation weather report (METAR) for Minneapolis-St Paul International/Wold-Chamberlain Airport

Retrieved 2020/01/23 10:16 UTC (17 minutes ago):

KMSP 231016Z 13006KT 5SM BR OVC009 M01/M02 A2993 RMK AO2 T10061022

Aviation forecast (TAF) for Minneapolis-St Paul International/Wold-Chamberlain Airport

Retrieved 2020/01/23 06:22 UTC (4 hours ago):

TAF KMSP 230520Z 2306/2412 15004KT 2SM -SN BR OVC005 FM230900 13003KT 4SM BR OVC008 FM231800 VRB04KT 4SM -SHSN BR OVC009 FM240000 VRB03KT P6SM OVC007